Parmelee, South Dakota
Current Conditions -  °F | °C
As of 10:52 AM on Sunday 23 Nov 2014 (Local Time) from KVTN Reporting Station
Clear Clear  
Wind Chill: 37°   Ceiling: Unl
Heat Index: 46°   Visibility: 10mi
Dew Point: 22°   Wind: 26mph
Humidity: 39%   Direction: 320°NW
Pressure: 29.67"   Gusts: 43mph
Location:  43.32°N, 101.03°W
Report Text: KVTN 231752Z AUTO 32023G37KT 10SM CLR 08/M06 A2967 RMK AO2 PK WND 33038/1739 SLP057 T00781056 10078 20033 58000
Loading
Personal Weather Stations






























Interactive Weather Map New forecast layout! Learn more

10-Day Weather Forecast

Advertisements
Track Severe Weather on mobile